Cols Grove, Ohio
Current Conditions -  °F | °C
As of 5:53 PM on Tuesday 27 Jan 2015 (Local Time) from KAOH Reporting Station
Clear Clear  
Wind Chill: 18°   Ceiling: Unl
Heat Index: 18°   Visibility: 10mi
Dew Point:   Wind: 3mph
Humidity: 68%   Direction: 330°NNW
Pressure: 30.15"   Gusts: NA
Location:  40.9068°N, 84.0923°W
Report Text: KAOH 272253Z AUTO 33003KT 10SM CLR M08/M13 A3015 RMK AO2 SLP229 T10781128
Loading
Personal Weather Stations






























Interactive Weather Map New forecast layout! Learn more

10-Day Weather Forecast

Advertisements
Track Severe Weather on mobile